Time;durP1;ratioP1;P1;durP2;ratioP2;P2;SDS_P1;SDS_P2;PMS_P1;PMS_P2;Temp;Humidity;BMP_temperature;BMP_pressure;BME280_temperature;BME280_humidity;BME280_pressure;Samples;Min_cycle;Max_cycle;Signal;HPM_P1;HPM_P2
2022/06/28 00:02:16;;;;;;;6.53;4.25;;;13.10;99.90;;;;;;4987372;28;20026;-79
2022/06/28 00:04:42;;;;;;;3.70;2.72;;;13.00;99.90;;;;;;4989619;28;20316;-80
2022/06/28 00:07:07;;;;;;;5.10;3.83;;;12.90;99.90;;;;;;5034736;28;20040;-79
2022/06/28 00:09:33;;;;;;;6.70;3.20;;;13.00;99.90;;;;;;5010912;28;20494;-79
2022/06/28 00:11:58;;;;;;;5.80;3.38;;;13.00;99.90;;;;;;4999409;28;20057;-80
2022/06/28 00:17:08;;;;;;;12.38;4.25;;;13.00;99.90;;;;;;5013718;28;20633;-79
2022/06/28 00:19:34;;;;;;;3.67;3.30;;;13.00;99.90;;;;;;5007801;28;20034;-80
2022/06/28 00:21:59;;;;;;;7.70;3.70;;;13.00;99.90;;;;;;5004236;28;20136;-80
2022/06/28 00:24:25;;;;;;;6.05;2.75;;;13.10;99.90;;;;;;4998166;28;20493;-79
2022/06/28 00:26:50;;;;;;;4.43;3.22;;;13.30;99.90;;;;;;5004366;28;20031;-79
2022/06/28 00:29:16;;;;;;;3.83;3.20;;;13.20;99.90;;;;;;5010892;28;20108;-79
2022/06/28 00:31:42;;;;;;;3.25;2.72;;;13.30;99.90;;;;;;5005602;28;20038;-80
2022/06/28 00:34:07;;;;;;;8.55;4.03;;;13.20;99.90;;;;;;4992593;28;20485;-79
2022/06/28 00:36:33;;;;;;;7.30;3.83;;;13.20;99.90;;;;;;5010412;28;20030;-79
2022/06/28 00:38:59;;;;;;;5.50;3.40;;;13.00;99.90;;;;;;5006875;28;20030;-79
2022/06/28 00:41:25;;;;;;;5.13;2.33;;;13.00;99.90;;;;;;5005166;28;20041;-79
2022/06/28 00:43:51;;;;;;;4.68;2.55;;;13.10;99.90;;;;;;5014962;28;20061;-79
2022/06/28 00:46:17;;;;;;;7.90;3.58;;;13.20;99.90;;;;;;4994877;28;20460;-79
2022/06/28 00:48:42;;;;;;;5.00;3.45;;;13.20;99.90;;;;;;5001346;28;20081;-79
2022/06/28 00:51:09;;;;;;;4.00;3.45;;;13.10;99.90;;;;;;5003147;28;20483;-79
2022/06/28 00:53:34;;;;;;;9.73;5.20;;;12.90;99.90;;;;;;4991677;28;20102;-79
2022/06/28 00:56:00;;;;;;;4.70;3.58;;;12.90;99.90;;;;;;4993966;28;20037;-79
2022/06/28 00:58:25;;;;;;;6.07;4.30;;;12.90;99.90;;;;;;5023723;28;20684;-80
2022/06/28 01:00:51;;;;;;;7.22;4.30;;;13.00;99.90;;;;;;5018432;28;20077;-79
2022/06/28 01:03:21;;;;;;;5.88;4.13;;;12.90;99.90;;;;;;5002083;28;20034;-79
2022/06/28 01:05:46;;;;;;;4.68;4.00;;;12.90;99.90;;;;;;5009629;28;20036;-79
2022/06/28 01:08:12;;;;;;;5.40;4.20;;;12.90;99.90;;;;;;5011763;28;20473;-79
2022/06/28 01:10:38;;;;;;;5.70;4.13;;;12.90;99.90;;;;;;4992311;28;20033;-79
2022/06/28 01:13:04;;;;;;;9.52;5.05;;;12.70;99.90;;;;;;5005057;28;20025;-79
2022/06/28 01:15:30;;;;;;;6.10;3.90;;;12.60;99.90;;;;;;5006565;28;20030;-80
2022/06/28 01:17:55;;;;;;;5.82;4.00;;;12.60;99.90;;;;;;5024746;28;20034;-79
2022/06/28 01:20:21;;;;;;;9.55;6.55;;;12.50;99.90;;;;;;4994365;28;20034;-79
2022/06/28 01:22:47;;;;;;;12.40;6.97;;;12.40;99.90;;;;;;4968332;28;20037;-79
2022/06/28 01:25:12;;;;;;;9.25;6.50;;;12.30;99.90;;;;;;5020061;28;20033;-79
2022/06/28 01:27:38;;;;;;;8.13;6.50;;;12.30;99.90;;;;;;5011983;28;20033;-79
2022/06/28 01:30:04;;;;;;;8.95;6.82;;;12.20;99.90;;;;;;4995562;28;20174;-79
2022/06/28 01:32:30;;;;;;;10.50;8.10;;;12.10;99.90;;;;;;4999955;28;20030;-79
2022/06/28 01:34:56;;;;;;;10.00;7.10;;;12.10;99.90;;;;;;5006146;28;20026;-78
2022/06/28 01:37:22;;;;;;;12.82;7.53;;;12.00;99.90;;;;;;5007587;28;20112;-78
2022/06/28 01:39:48;;;;;;;10.30;7.70;;;12.00;99.90;;;;;;4999301;28;21621;-78
2022/06/28 01:42:14;;;;;;;10.68;7.25;;;11.90;99.90;;;;;;5011505;28;20489;-78
2022/06/28 01:44:39;;;;;;;11.30;7.70;;;11.90;99.90;;;;;;5006043;28;20136;-78
2022/06/28 01:47:06;;;;;;;12.25;7.78;;;11.90;99.90;;;;;;5009247;28;20033;-78
2022/06/28 01:49:31;;;;;;;12.32;8.77;;;11.90;99.90;;;;;;4997179;28;20030;-78
2022/06/28 01:51:57;;;;;;;13.02;9.00;;;11.80;99.90;;;;;;5012434;28;20034;-79
2022/06/28 01:54:23;;;;;;;14.25;8.60;;;11.80;99.90;;;;;;4982079;28;20026;-79
2022/06/28 01:56:48;;;;;;;13.35;8.20;;;11.80;99.90;;;;;;4989565;28;20041;-79
2022/06/28 01:59:14;;;;;;;9.82;8.38;;;11.80;99.90;;;;;;4988097;28;20049;-79
2022/06/28 02:01:39;;;;;;;14.43;8.30;;;11.80;99.90;;;;;;5005227;28;20029;-79
2022/06/28 02:04:21;;;;;;;10.85;7.97;;;11.70;99.90;;;;;;4990492;28;20539;-78
2022/06/28 02:06:47;;;;;;;11.20;8.68;;;11.70;99.90;;;;;;4997001;28;20033;-79
2022/06/28 02:09:12;;;;;;;10.25;8.23;;;11.60;99.90;;;;;;5002546;28;20069;-79
2022/06/28 02:11:38;;;;;;;11.40;7.88;;;11.50;99.90;;;;;;4988714;28;20018;-79
2022/06/28 02:14:04;;;;;;;10.60;7.53;;;11.60;99.90;;;;;;4991707;28;20409;-79
2022/06/28 02:16:29;;;;;;;13.70;7.82;;;11.70;99.90;;;;;;5007528;28;20033;-79
2022/06/28 02:18:55;;;;;;;8.35;7.50;;;11.60;99.90;;;;;;5005441;28;20057;-79
2022/06/28 02:21:21;;;;;;;11.40;8.52;;;11.60;99.90;;;;;;5021951;28;20425;-79
2022/06/28 02:23:46;;;;;;;9.00;7.03;;;11.50;99.90;;;;;;5043127;28;20109;-79
2022/06/28 02:26:13;;;;;;;12.68;7.80;;;11.50;99.90;;;;;;5013652;28;20046;-79
2022/06/28 02:28:41;;;;;;;14.05;8.57;;;11.60;99.90;;;;;;4984557;28;20026;-80
2022/06/28 02:31:11;;;;;;;10.48;7.93;;;11.60;99.90;;;;;;5020703;28;20041;-79
2022/06/28 02:33:36;;;;;;;9.50;7.80;;;11.80;99.90;;;;;;5009353;28;20506;-78
2022/06/28 02:41:30;;;;;;;10.63;8.10;;;11.80;99.90;;;;;;5013805;28;20396;-78
2022/06/28 02:43:56;;;;;;;11.32;8.70;;;11.80;99.90;;;;;;5035060;28;20025;-78
2022/06/28 02:46:22;;;;;;;12.60;8.93;;;11.80;99.90;;;;;;5030503;28;20578;-79
2022/06/28 02:48:47;;;;;;;5.10;4.57;;;11.70;99.90;;;;;;4983762;28;20053;-79
2022/06/28 02:51:13;;;;;;;13.38;9.15;;;11.70;99.90;;;;;;4993044;28;20087;-79
2022/06/28 02:53:38;;;;;;;11.02;6.53;;;11.80;99.90;;;;;;5000431;28;20168;-78
2022/06/28 02:56:04;;;;;;;9.20;8.13;;;11.70;99.90;;;;;;4993627;28;20030;-79
2022/06/28 02:58:30;;;;;;;13.85;9.18;;;11.90;99.90;;;;;;5017713;28;20141;-78
2022/06/28 03:00:55;;;;;;;12.52;9.30;;;11.80;99.90;;;;;;5013911;28;20027;-79
2022/06/28 03:03:21;;;;;;;10.75;7.78;;;11.80;99.90;;;;;;5002294;28;20065;-79
2022/06/28 03:05:46;;;;;;;13.27;7.80;;;11.80;99.90;;;;;;4991665;28;20026;-79
2022/06/28 03:08:12;;;;;;;10.32;8.85;;;11.90;99.90;;;;;;5010802;28;20088;-78
2022/06/28 03:10:37;;;;;;;8.93;5.65;;;11.90;99.90;;;;;;4985401;28;20030;-79
2022/06/28 03:13:03;;;;;;;15.57;8.73;;;11.90;99.90;;;;;;5001390;28;20044;-78
2022/06/28 03:15:29;;;;;;;6.88;5.38;;;12.00;99.90;;;;;;5034173;28;20113;-79
2022/06/28 03:17:54;;;;;;;14.57;8.98;;;11.80;99.90;;;;;;5022848;28;20138;-79
2022/06/28 03:20:20;;;;;;;10.90;9.75;;;11.80;99.90;;;;;;4990918;28;20092;-79
2022/06/28 03:22:46;;;;;;;12.98;10.40;;;11.60;99.90;;;;;;4988947;28;20033;-79
2022/06/28 03:25:11;;;;;;;13.43;8.05;;;11.50;99.90;;;;;;5022979;28;20037;-79
2022/06/28 03:27:37;;;;;;;20.05;9.90;;;11.50;99.90;;;;;;4976262;28;20537;-79
2022/06/28 03:30:03;;;;;;;10.88;9.38;;;11.60;99.90;;;;;;5005876;28;20038;-78
2022/06/28 03:32:29;;;;;;;8.10;4.82;;;11.60;99.90;;;;;;4988162;28;20034;-78
2022/06/28 03:34:55;;;;;;;14.77;9.55;;;11.70;99.90;;;;;;5005808;28;20620;-79
2022/06/28 03:37:20;;;;;;;12.10;10.02;;;11.70;99.90;;;;;;5006501;28;20037;-78
2022/06/28 03:39:46;;;;;;;14.40;9.05;;;11.70;99.90;;;;;;5000273;28;20096;-78
2022/06/28 03:42:11;;;;;;;12.07;9.75;;;11.80;99.90;;;;;;5007315;28;20482;-78
2022/06/28 03:44:37;;;;;;;15.73;9.65;;;11.70;99.90;;;;;;5000104;28;20129;-79
2022/06/28 03:47:03;;;;;;;26.42;10.57;;;11.70;99.90;;;;;;5027285;28;20038;-78
2022/06/28 03:49:29;;;;;;;14.60;10.70;;;11.80;99.90;;;;;;4998695;28;20025;-79
2022/06/28 03:51:54;;;;;;;16.33;10.88;;;11.50;99.90;;;;;;4993931;28;20124;-78
2022/06/28 03:54:20;;;;;;;15.68;10.80;;;11.50;99.90;;;;;;4991502;28;20116;-78
2022/06/28 03:56:45;;;;;;;17.63;10.20;;;11.40;99.90;;;;;;4987463;28;20045;-78
2022/06/28 03:59:11;;;;;;;11.52;9.32;;;11.60;99.90;;;;;;5007272;28;20033;-79
2022/06/28 04:01:37;;;;;;;20.88;12.35;;;11.80;99.90;;;;;;4996501;28;20022;-78
2022/06/28 04:04:02;;;;;;;17.45;13.15;;;12.00;99.90;;;;;;5006201;28;20033;-78
2022/06/28 04:06:28;;;;;;;16.65;13.20;;;12.10;99.90;;;;;;4988860;28;20032;-78
2022/06/28 04:08:54;;;;;;;14.25;10.88;;;12.20;99.90;;;;;;5008281;28;20032;-78
2022/06/28 04:11:19;;;;;;;19.40;13.95;;;12.40;99.90;;;;;;5004949;28;20033;-79
2022/06/28 04:13:49;;;;;;;9.35;7.20;;;12.60;99.90;;;;;;5011757;28;20045;-78
2022/06/28 04:16:15;;;;;;;16.40;9.95;;;12.80;99.90;;;;;;5023848;28;20034;-79
2022/06/28 04:18:41;;;;;;;10.20;8.73;;;12.80;99.90;;;;;;4999531;28;20583;-79
2022/06/28 04:21:09;;;;;;;14.63;8.63;;;12.90;99.90;;;;;;5016543;28;20080;-78
2022/06/28 04:23:34;;;;;;;22.80;13.65;;;13.00;99.90;;;;;;5014393;28;20419;-78
2022/06/28 04:26:00;;;;;;;21.83;14.35;;;13.20;99.90;;;;;;5007233;28;20083;-79
2022/06/28 04:28:25;;;;;;;23.08;14.45;;;13.40;99.90;;;;;;5015931;28;20113;-78
2022/06/28 04:30:51;;;;;;;34.60;15.93;;;13.50;99.90;;;;;;5024648;28;20080;-78
2022/06/28 04:33:16;;;;;;;12.48;9.45;;;13.60;99.90;;;;;;5008878;28;20497;-78
2022/06/28 04:35:42;;;;;;;15.27;10.48;;;13.70;99.90;;;;;;5009262;28;20616;-78
2022/06/28 04:38:07;;;;;;;15.52;10.63;;;13.80;99.90;;;;;;4991051;28;20022;-78
2022/06/28 04:40:33;;;;;;;11.10;7.10;;;14.00;99.90;;;;;;4992582;28;20066;-78
2022/06/28 04:42:59;;;;;;;8.35;5.10;;;14.10;99.90;;;;;;5000882;28;20030;-78
2022/06/28 04:45:24;;;;;;;9.85;6.78;;;14.20;99.90;;;;;;5002398;28;20026;-78
2022/06/28 04:47:50;;;;;;;16.50;10.85;;;14.30;99.90;;;;;;5023513;28;20022;-78
2022/06/28 04:50:15;;;;;;;11.05;7.80;;;14.50;99.90;;;;;;4973141;28;20046;-79
2022/06/28 04:52:41;;;;;;;9.27;7.10;;;14.80;99.90;;;;;;4987749;28;20035;-78
2022/06/28 04:55:07;;;;;;;12.80;7.53;;;14.90;99.90;;;;;;5008911;28;20049;-78
2022/06/28 04:57:32;;;;;;;12.20;7.03;;;15.00;99.90;;;;;;5009058;28;20049;-78
2022/06/28 04:59:58;;;;;;;7.90;7.07;;;15.30;99.90;;;;;;5002478;28;20042;-79
2022/06/28 05:02:23;;;;;;;7.55;5.18;;;15.40;99.90;;;;;;4994284;28;20041;-80
2022/06/28 05:04:49;;;;;;;5.60;5.03;;;15.60;99.90;;;;;;5017490;28;20034;-78
2022/06/28 05:07:14;;;;;;;17.17;8.50;;;15.70;99.90;;;;;;4997913;28;20034;-77
2022/06/28 05:09:40;;;;;;;8.63;5.93;;;15.90;99.90;;;;;;5003037;28;20536;-77
2022/06/28 05:12:06;;;;;;;12.95;8.52;;;16.20;99.90;;;;;;5034053;28;20451;-75
2022/06/28 05:14:32;;;;;;;6.95;6.07;;;16.30;99.90;;;;;;4986782;28;20121;-78
2022/06/28 05:16:59;;;;;;;12.35;8.07;;;16.50;99.90;;;;;;5004052;28;20129;-78
2022/06/28 05:19:25;;;;;;;14.10;7.78;;;17.00;99.90;;;;;;5013951;28;20042;-75
2022/06/28 05:21:50;;;;;;;9.70;7.63;;;17.40;99.90;;;;;;5006633;28;20042;-76
2022/06/28 05:24:16;;;;;;;8.40;6.47;;;17.60;99.90;;;;;;5005010;28;20034;-75
2022/06/28 05:26:42;;;;;;;5.43;4.03;;;17.70;99.90;;;;;;4983415;28;20033;-76
2022/06/28 05:29:08;;;;;;;8.50;6.00;;;17.90;99.90;;;;;;5036579;28;20030;-76
2022/06/28 05:31:33;;;;;;;11.05;5.93;;;17.90;99.90;;;;;;5006536;28;20033;-76
2022/06/28 05:34:00;;;;;;;6.78;5.13;;;18.20;99.90;;;;;;5019357;28;20049;-76
2022/06/28 05:36:25;;;;;;;7.70;5.63;;;18.30;99.90;;;;;;5001917;28;20095;-76
2022/06/28 05:38:51;;;;;;;10.25;4.32;;;18.40;99.90;;;;;;5004790;28;20489;-77
2022/06/28 05:41:17;;;;;;;7.13;4.20;;;18.20;99.90;;;;;;4990934;28;20105;-76
2022/06/28 05:43:42;;;;;;;6.40;4.53;;;18.70;99.90;;;;;;4989891;28;20034;-77
2022/06/28 05:46:08;;;;;;;7.82;4.82;;;18.80;99.90;;;;;;4989949;28;20113;-77
2022/06/28 05:48:33;;;;;;;6.05;4.72;;;19.20;99.90;;;;;;5016828;28;20036;-77
2022/06/28 05:50:59;;;;;;;4.15;3.22;;;19.70;99.90;;;;;;5008235;28;20056;-77
2022/06/28 05:53:24;;;;;;;7.45;3.58;;;19.90;99.90;;;;;;4994550;28;20544;-77
2022/06/28 05:55:50;;;;;;;9.63;4.28;;;19.90;99.90;;;;;;5011001;28;20549;-76
2022/06/28 05:58:16;;;;;;;9.10;4.38;;;20.10;99.90;;;;;;5018313;28;20397;-77
2022/06/28 06:00:41;;;;;;;7.50;3.65;;;20.60;99.90;;;;;;5014524;28;20133;-77
2022/06/28 06:03:07;;;;;;;5.55;3.72;;;20.70;99.90;;;;;;4996165;28;20564;-77
2022/06/28 06:05:32;;;;;;;5.78;3.35;;;21.10;99.90;;;;;;5024332;28;20029;-77
2022/06/28 06:07:58;;;;;;;3.17;2.70;;;21.40;99.90;;;;;;5005666;28;20676;-77
2022/06/28 06:10:24;;;;;;;4.75;2.97;;;21.40;99.90;;;;;;5008501;28;20109;-77
2022/06/28 06:12:49;;;;;;;6.30;3.33;;;20.90;99.90;;;;;;4988679;28;20030;-77
2022/06/28 06:15:15;;;;;;;4.80;2.72;;;20.60;99.90;;;;;;5008734;28;20041;-77
2022/06/28 06:17:41;;;;;;;5.53;3.25;;;20.50;98.50;;;;;;4969850;28;20026;-77
2022/06/28 06:20:08;;;;;;;5.35;2.47;;;21.10;99.90;;;;;;5007311;28;20037;-77
2022/06/28 06:22:34;;;;;;;4.68;2.58;;;21.60;99.90;;;;;;5002316;28;20112;-77
2022/06/28 06:24:59;;;;;;;7.00;2.72;;;22.40;99.90;;;;;;4992284;28;20112;-76
2022/06/28 06:27:25;;;;;;;6.28;2.90;;;22.30;99.90;;;;;;5007400;28;20413;-76
2022/06/28 06:29:51;;;;;;;6.10;2.25;;;22.70;99.90;;;;;;4998952;28;20034;-76
2022/06/28 06:32:16;;;;;;;5.93;3.38;;;23.00;99.90;;;;;;5014549;28;20042;-77
2022/06/28 06:34:42;;;;;;;7.95;2.75;;;22.60;97.40;;;;;;5017710;28;20034;-77
2022/06/28 06:37:07;;;;;;;4.72;2.47;;;22.50;99.90;;;;;;5008471;28;20026;-77
2022/06/28 06:39:33;;;;;;;6.53;2.42;;;22.70;99.60;;;;;;5005159;28;20044;-77
2022/06/28 06:41:58;;;;;;;7.28;3.13;;;23.10;99.90;;;;;;5001105;28;20061;-77
2022/06/28 06:44:25;;;;;;;4.25;2.55;;;23.60;99.90;;;;;;4981983;28;20063;-77
2022/06/28 06:46:51;;;;;;;5.63;2.78;;;23.90;99.30;;;;;;4988091;28;20053;-78
2022/06/28 06:49:17;;;;;;;4.85;2.50;;;22.90;94.10;;;;;;4986828;28;20068;-77
2022/06/28 06:51:44;;;;;;;6.22;2.83;;;22.70;96.00;;;;;;5019952;28;20036;-77
2022/06/28 06:54:11;;;;;;;8.02;2.88;;;23.50;99.90;;;;;;5001299;28;20033;-78
2022/06/28 06:56:36;;;;;;;5.05;2.63;;;24.40;99.90;;;;;;5009071;28;20052;-77
2022/06/28 06:59:02;;;;;;;5.72;2.75;;;24.80;98.70;;;;;;4985204;28;20045;-76
2022/06/28 07:01:30;;;;;;;9.00;2.80;;;24.80;98.70;;;;;;5001093;28;20171;-76
2022/06/28 07:03:55;;;;;;;7.82;2.92;;;24.90;97.40;;;;;;5003488;28;20048;-76
2022/06/28 07:06:21;;;;;;;6.75;2.63;;;25.10;97.80;;;;;;5006269;28;20026;-77
2022/06/28 07:08:46;;;;;;;8.90;2.70;;;25.50;97.30;;;;;;4989556;28;20033;-76
2022/06/28 07:11:12;;;;;;;3.53;2.03;;;25.90;95.80;;;;;;4986594;28;20022;-76
2022/06/28 07:13:37;;;;;;;6.78;2.33;;;25.90;95.20;;;;;;4995486;28;20034;-76
2022/06/28 07:16:03;;;;;;;3.08;1.85;;;25.90;94.60;;;;;;4985383;28;20045;-75
2022/06/28 07:18:29;;;;;;;5.00;1.83;;;26.20;94.10;;;;;;4982465;28;20025;-76
2022/06/28 07:20:55;;;;;;;4.57;1.75;;;26.10;93.90;;;;;;5036823;28;20038;-75
2022/06/28 07:23:22;;;;;;;3.10;1.35;;;26.00;93.20;;;;;;5003649;28;20132;-75
2022/06/28 07:25:47;;;;;;;2.75;1.20;;;25.90;93.00;;;;;;5018713;28;20038;-75
2022/06/28 07:28:13;;;;;;;4.10;1.40;;;26.10;91.90;;;;;;4992574;28;20091;-76
2022/06/28 07:30:38;;;;;;;5.95;1.02;;;25.80;91.00;;;;;;4990605;28;20037;-76
2022/06/28 07:52:39;;;;;;;1.42;1.00;;;27.30;88.30;;;;;;5055677;28;20400;-78
2022/06/28 07:55:06;;;;;;;2.47;1.00;;;27.30;85.60;;;;;;5057551;28;20021;-75
2022/06/28 07:57:32;;;;;;;4.13;1.05;;;26.50;82.90;;;;;;5040823;28;20134;-75
2022/06/28 07:59:57;;;;;;;3.63;1.10;;;27.00;87.40;;;;;;5056241;28;20413;-75
2022/06/28 08:02:23;;;;;;;1.90;0.77;;;27.50;83.70;;;;;;5026261;28;20057;-75
2022/06/28 08:04:49;;;;;;;3.35;1.05;;;27.50;83.20;;;;;;5060742;28;20116;-75
2022/06/28 08:07:14;;;;;;;4.18;1.20;;;27.70;83.10;;;;;;5037944;28;20036;-75
2022/06/28 08:09:40;;;;;;;5.82;1.08;;;28.00;82.90;;;;;;5064945;28;20024;-76
2022/06/28 08:12:06;;;;;;;1.25;0.93;;;28.20;79.80;;;;;;5042130;28;20037;-76
2022/06/28 08:14:32;;;;;;;2.13;1.00;;;27.70;81.50;;;;;;5081533;28;20025;-75
2022/06/28 08:16:57;;;;;;;3.55;0.98;;;28.30;77.60;;;;;;5082168;28;20029;-75
2022/06/28 08:19:23;;;;;;;3.53;0.82;;;28.60;77.60;;;;;;5082485;28;20032;-75
2022/06/28 08:21:49;;;;;;;2.33;1.08;;;28.80;76.70;;;;;;5056336;28;20086;-75
2022/06/28 08:24:15;;;;;;;2.70;1.15;;;28.90;75.70;;;;;;5059254;28;20029;-75
2022/06/28 08:26:43;;;;;;;2.13;0.90;;;28.90;75.70;;;;;;5058919;28;20511;-74
2022/06/28 08:29:13;;;;;;;4.65;1.00;;;28.80;74.20;;;;;;5043428;28;20099;-74
2022/06/28 08:31:38;;;;;;;4.45;0.98;;;28.70;73.10;;;;;;5043545;28;20025;-74
2022/06/28 08:34:04;;;;;;;3.42;1.10;;;28.70;73.60;;;;;;5060533;28;20032;-74
2022/06/28 08:36:29;;;;;;;1.83;0.65;;;29.30;74.20;;;;;;5058104;28;20226;-75
2022/06/28 08:38:56;;;;;;;1.98;1.10;;;29.00;72.60;;;;;;5060180;28;20177;-74
2022/06/28 08:41:22;;;;;;;2.20;0.88;;;29.10;74.00;;;;;;5058624;28;20067;-74
2022/06/28 08:43:48;;;;;;;2.38;0.80;;;28.80;73.90;;;;;;5054615;28;20032;-75
2022/06/28 08:46:13;;;;;;;2.20;0.90;;;29.10;71.10;;;;;;5049186;28;20537;-74
2022/06/28 08:48:40;;;;;;;5.40;1.52;;;29.70;69.90;;;;;;5047634;28;20494;-75
2022/06/28 08:51:07;;;;;;;5.95;1.10;;;30.10;67.50;;;;;;5057585;28;20661;-75
2022/06/28 08:53:33;;;;;;;1.60;0.77;;;29.80;68.50;;;;;;5023198;28;20132;-75
2022/06/28 08:55:59;;;;;;;4.78;1.00;;;30.00;66.60;;;;;;5026951;28;20120;-75
2022/06/28 08:58:24;;;;;;;2.20;0.68;;;30.50;67.00;;;;;;5027807;28;20392;-75
2022/06/28 09:00:50;;;;;;;5.13;1.08;;;30.20;68.10;;;;;;5042798;28;20037;-75
2022/06/28 09:03:16;;;;;;;7.55;0.80;;;30.20;67.90;;;;;;5036309;28;20437;-76
2022/06/28 09:05:42;;;;;;;1.55;0.70;;;30.30;66.90;;;;;;5043137;28;20033;-75
2022/06/28 09:08:08;;;;;;;3.53;0.80;;;30.20;68.30;;;;;;5027101;28;20098;-76
2022/06/28 09:10:33;;;;;;;1.17;0.60;;;30.30;67.70;;;;;;5060856;28;20055;-76
2022/06/28 09:13:06;;;;;;;1.25;0.68;;;30.30;70.20;;;;;;5023230;28;20083;-75
2022/06/28 09:15:59;;;;;;;2.47;0.75;;;30.50;68.90;;;;;;5025363;28;20057;-76
2022/06/28 09:18:34;;;;;;;2.47;0.90;;;30.60;68.40;;;;;;5026937;28;20068;-76
2022/06/28 09:20:59;;;;;;;3.67;1.13;;;31.00;69.00;;;;;;5039592;28;20087;-76
2022/06/28 09:23:33;;;;;;;4.10;0.80;;;31.20;65.90;;;;;;5027514;28;20033;-75
2022/06/28 09:26:10;;;;;;;2.20;0.75;;;31.50;62.90;;;;;;5043945;28;20026;-75
2022/06/28 09:28:42;;;;;;;3.03;0.90;;;30.90;66.20;;;;;;5037284;28;20080;-76
2022/06/28 09:31:26;;;;;;;4.18;1.05;;;31.50;63.80;;;;;;5056602;28;20454;-76
2022/06/28 09:34:01;;;;;;;1.67;0.77;;;31.90;62.40;;;;;;5041697;28;20046;-78
2022/06/28 09:36:28;;;;;;;1.48;0.90;;;31.30;64.40;;;;;;5038040;28;20018;-77
2022/06/28 09:38:56;;;;;;;2.38;1.05;;;31.70;60.60;;;;;;5018422;28;20692;-78
2022/06/28 09:41:24;;;;;;;1.88;0.80;;;31.90;60.40;;;;;;5038650;28;20487;-75
2022/06/28 09:43:57;;;;;;;5.68;1.23;;;32.00;60.00;;;;;;5024107;28;20108;-77
2022/06/28 09:46:26;;;;;;;6.35;1.25;;;32.20;60.60;;;;;;5041881;28;20467;-77
2022/06/28 09:48:52;;;;;;;1.45;0.70;;;32.30;59.60;;;;;;5042744;28;20167;-77
2022/06/28 09:51:22;;;;;;;2.60;0.90;;;32.50;58.90;;;;;;5041493;28;20041;-77
2022/06/28 09:53:48;;;;;;;2.42;0.95;;;32.60;58.30;;;;;;5018820;28;20029;-76
2022/06/28 09:56:13;;;;;;;6.82;1.02;;;32.80;57.20;;;;;;5040969;28;20166;-77
2022/06/28 09:58:39;;;;;;;1.25;1.15;;;33.20;55.70;;;;;;5034020;28;20022;-77
2022/06/28 10:01:04;;;;;;;2.65;0.88;;;33.20;57.60;;;;;;5017850;28;20033;-76
2022/06/28 10:03:30;;;;;;;1.92;0.90;;;33.20;58.50;;;;;;5041605;28;20417;-77
2022/06/28 10:05:56;;;;;;;3.10;1.67;;;33.00;56.70;;;;;;5025952;28;20033;-77
2022/06/28 10:08:21;;;;;;;2.05;0.85;;;33.00;56.20;;;;;;5021468;28;20026;-77
2022/06/28 10:10:47;;;;;;;5.95;0.93;;;33.40;55.10;;;;;;5037056;28;20387;-77
2022/06/28 10:16:35;;;;;;;4.18;0.70;;;33.80;53.00;;;;;;5028130;28;20063;-76
2022/06/28 10:19:00;;;;;;;3.33;1.08;;;33.80;54.10;;;;;;5031269;28;20079;-79
2022/06/28 10:21:56;;;;;;;3.28;1.05;;;33.80;52.40;;;;;;5037476;28;20444;-78
2022/06/28 10:24:22;;;;;;;6.68;1.55;;;33.90;53.90;;;;;;5036940;28;20047;-78
2022/06/28 10:27:12;;;;;;;2.38;1.48;;;34.20;52.50;;;;;;5019857;28;20029;-77
2022/06/28 10:30:09;;;;;;;3.60;1.05;;;34.20;53.20;;;;;;5038185;28;20041;-80
2022/06/28 10:32:44;;;;;;;1.63;0.80;;;34.00;51.60;;;;;;5023730;28;20043;-79
2022/06/28 10:35:10;;;;;;;2.00;0.70;;;34.30;54.00;;;;;;5027390;28;20029;-78
2022/06/28 10:37:35;;;;;;;4.45;0.70;;;34.30;51.90;;;;;;5030477;28;20029;-78
2022/06/28 10:40:28;;;;;;;3.78;1.50;;;34.40;52.20;;;;;;5041930;28;20487;-78
2022/06/28 10:42:53;;;;;;;3.05;0.88;;;34.40;52.40;;;;;;5022615;28;20121;-78
2022/06/28 10:45:22;;;;;;;4.85;1.20;;;34.60;51.60;;;;;;5035731;28;20061;-78
2022/06/28 10:48:11;;;;;;;6.38;1.42;;;35.10;49.50;;;;;;5024965;28;20039;-78
2022/06/28 10:50:59;;;;;;;3.05;1.17;;;35.70;44.40;;;;;;5029901;28;20033;-78
2022/06/28 10:53:51;;;;;;;2.78;0.70;;;35.60;47.40;;;;;;5036208;28;20033;-78
2022/06/28 10:56:17;;;;;;;2.70;0.90;;;35.50;47.10;;;;;;5049137;28;20033;-78
2022/06/28 10:59:02;;;;;;;1.60;0.80;;;35.40;48.80;;;;;;5022131;28;20056;-79
2022/06/28 11:01:40;;;;;;;3.40;0.98;;;35.60;47.30;;;;;;5036851;28;20056;-78
2022/06/28 11:04:28;;;;;;;3.65;0.70;;;35.80;46.20;;;;;;5036154;28;20140;-78
2022/06/28 11:06:54;;;;;;;2.15;0.70;;;35.80;44.60;;;;;;5041560;28;20021;-79
2022/06/28 11:09:44;;;;;;;2.70;0.88;;;35.60;44.60;;;;;;5058094;28;20590;-79
2022/06/28 11:12:16;;;;;;;1.63;0.60;;;35.60;44.00;;;;;;5039919;28;20043;-79
2022/06/28 11:14:47;;;;;;;5.55;1.17;;;35.40;47.50;;;;;;5040337;28;20036;-79
2022/06/28 11:17:17;;;;;;;4.00;1.02;;;35.50;45.50;;;;;;5038789;28;20030;-79
2022/06/28 11:19:53;;;;;;;1.17;0.70;;;35.50;44.20;;;;;;5024694;28;20479;-79
2022/06/28 11:22:29;;;;;;;1.25;0.70;;;35.70;43.70;;;;;;5055710;28;20412;-79
2022/06/28 11:24:56;;;;;;;1.30;0.63;;;35.60;42.80;;;;;;5055282;28;20444;-79
2022/06/28 11:27:22;;;;;;;3.28;0.93;;;35.90;43.10;;;;;;5009566;28;20123;-79
2022/06/28 11:29:59;;;;;;;1.38;0.88;;;36.00;42.40;;;;;;5040862;28;20120;-79
2022/06/28 11:32:26;;;;;;;2.50;0.73;;;36.10;42.90;;;;;;5040398;28;20124;-79
2022/06/28 11:34:54;;;;;;;2.50;0.57;;;36.10;42.90;;;;;;5024260;28;20061;-77
2022/06/28 11:37:19;;;;;;;2.58;0.70;;;36.40;42.00;;;;;;5036150;28;20064;-78
2022/06/28 11:39:45;;;;;;;3.33;1.35;;;36.50;42.50;;;;;;5024436;28;20060;-79
2022/06/28 11:42:11;;;;;;;1.67;0.75;;;36.60;44.70;;;;;;5041124;28;20095;-77
2022/06/28 11:44:36;;;;;;;3.60;0.95;;;36.90;43.80;;;;;;5043449;28;20084;-77
2022/06/28 11:47:03;;;;;;;2.05;0.70;;;37.00;44.40;;;;;;5058182;28;20107;-77
2022/06/28 11:49:29;;;;;;;1.92;0.95;;;36.90;41.60;;;;;;5029759;28;20052;-78
2022/06/28 11:51:55;;;;;;;0.55;0.50;;;37.10;41.20;;;;;;5010867;28;20481;-77
2022/06/28 11:54:21;;;;;;;2.03;0.60;;;37.10;42.10;;;;;;5029623;28;20021;-78
2022/06/28 11:56:47;;;;;;;3.35;0.93;;;37.10;41.70;;;;;;5024366;28;20036;-80
2022/06/28 11:59:13;;;;;;;1.33;0.98;;;37.50;41.40;;;;;;5045261;28;20492;-80
2022/06/28 12:01:39;;;;;;;3.22;0.80;;;37.30;42.00;;;;;;5024749;28;20392;-79
2022/06/28 12:04:06;;;;;;;3.63;0.60;;;37.40;42.70;;;;;;5027845;28;20029;-80
2022/06/28 12:06:33;;;;;;;5.10;1.20;;;37.80;43.30;;;;;;5061854;28;20056;-79
2022/06/28 12:09:05;;;;;;;2.45;0.90;;;37.70;41.70;;;;;;5028436;28;20040;-80
2022/06/28 12:11:35;;;;;;;1.15;0.50;;;37.80;40.40;;;;;;5045283;28;20143;-80
2022/06/28 12:14:12;;;;;;;2.45;1.02;;;37.60;39.20;;;;;;5035500;28;20029;-80
2022/06/28 12:16:38;;;;;;;2.63;1.10;;;37.50;39.80;;;;;;5042718;28;20044;-80
2022/06/28 12:19:18;;;;;;;1.27;0.60;;;37.30;40.30;;;;;;5043946;28;20392;-79
2022/06/28 12:22:01;;;;;;;1.83;1.00;;;37.10;39.30;;;;;;5025322;28;20028;-79
2022/06/28 12:24:45;;;;;;;1.85;0.77;;;37.00;38.50;;;;;;5042464;28;20373;-79
2022/06/28 12:27:15;;;;;;;1.90;0.82;;;36.80;37.30;;;;;;5039038;28;20084;-79
2022/06/28 12:29:41;;;;;;;4.38;0.85;;;36.50;37.90;;;;;;5024817;28;20500;-79
2022/06/28 12:32:07;;;;;;;1.70;0.90;;;36.30;38.20;;;;;;5038599;28;20068;-79
2022/06/28 12:34:32;;;;;;;5.72;0.98;;;36.10;38.90;;;;;;5023452;28;20067;-79
2022/06/28 12:36:58;;;;;;;2.53;1.08;;;36.00;39.30;;;;;;5024343;28;20025;-79
2022/06/28 12:39:23;;;;;;;4.20;1.17;;;36.20;38.10;;;;;;5009053;28;20037;-79
2022/06/28 12:41:49;;;;;;;3.03;0.82;;;36.20;38.50;;;;;;5027630;28;20406;-79
2022/06/28 12:44:15;;;;;;;1.35;0.50;;;36.30;41.00;;;;;;5055994;28;20029;-79
2022/06/28 12:46:41;;;;;;;1.00;0.65;;;36.40;42.20;;;;;;5024913;28;20027;-79
2022/06/28 12:49:06;;;;;;;4.22;1.33;;;36.60;39.40;;;;;;5026257;28;20472;-79
2022/06/28 12:51:32;;;;;;;2.85;0.90;;;36.90;37.20;;;;;;5034965;28;20029;-79
2022/06/28 12:53:57;;;;;;;1.73;0.60;;;37.00;36.80;;;;;;5021948;28;20048;-79
2022/06/28 12:56:23;;;;;;;4.68;0.70;;;37.00;38.40;;;;;;5021140;28;20029;-79
2022/06/28 12:58:49;;;;;;;1.58;0.70;;;37.10;40.80;;;;;;5027587;28;20112;-79
2022/06/28 13:01:14;;;;;;;1.55;0.82;;;37.40;40.70;;;;;;5043406;28;20033;-79
2022/06/28 13:03:40;;;;;;;2.78;0.63;;;37.60;38.50;;;;;;5023717;28;20408;-79
2022/06/28 13:06:07;;;;;;;5.93;1.27;;;37.80;39.20;;;;;;5041625;28;20337;-79
2022/06/28 13:08:32;;;;;;;2.05;0.75;;;38.10;38.70;;;;;;5021932;28;20072;-79
2022/06/28 13:10:58;;;;;;;2.03;0.70;;;38.30;39.30;;;;;;5023351;28;20053;-79
2022/06/28 13:13:23;;;;;;;2.75;0.85;;;38.30;39.50;;;;;;5011527;28;20037;-80
2022/06/28 13:15:49;;;;;;;4.53;0.77;;;38.40;40.50;;;;;;5030474;28;20499;-79